createdAt,value
2018-06-10T00:00:27.499Z,0
2018-06-10T00:01:07.863Z,0
2018-06-10T00:01:48.240Z,0
2018-06-10T00:02:28.681Z,0
2018-06-10T00:03:09.091Z,0
2018-06-10T00:07:03.533Z,0
2018-06-10T00:07:43.866Z,0
2018-06-10T00:08:24.315Z,0
2018-06-10T00:09:04.760Z,0
2018-06-10T00:09:45.161Z,0
2018-06-10T00:10:25.575Z,0
2018-06-10T00:11:05.915Z,0
2018-06-10T00:11:46.368Z,0
2018-06-10T00:12:26.796Z,0
2018-06-10T00:13:07.207Z,0
2018-06-10T00:13:47.577Z,0
2018-06-10T00:14:27.986Z,0
2018-06-10T00:15:08.328Z,0
2018-06-10T00:15:48.825Z,0
2018-06-10T00:16:29.176Z,0
2018-06-10T00:17:09.631Z,0
2018-06-10T00:17:49.977Z,0
2018-06-10T00:18:30.429Z,0
2018-06-10T00:19:10.801Z,0
2018-06-10T00:19:51.155Z,0
2018-06-10T00:20:31.612Z,0
2018-06-10T00:21:11.969Z,0
2018-06-10T00:21:52.414Z,0
2018-06-10T00:22:32.779Z,0
2018-06-10T00:23:13.221Z,0
2018-06-10T00:23:53.582Z,0
2018-06-10T00:24:33.974Z,0
2018-06-10T00:25:14.404Z,0
2018-06-10T00:25:54.739Z,0
2018-06-10T00:26:35.202Z,0
2018-06-10T00:27:15.628Z,0
2018-06-10T00:27:55.990Z,0
2018-06-10T00:28:36.452Z,0
2018-06-10T00:29:16.836Z,0
2018-06-10T00:29:57.227Z,0
2018-06-10T00:30:37.723Z,0
2018-06-10T00:31:18.240Z,0
2018-06-10T00:31:58.587Z,0
2018-06-10T00:32:38.997Z,0
2018-06-10T00:33:19.381Z,0
2018-06-10T00:33:59.794Z,0
2018-06-10T00:34:40.177Z,0
2018-06-10T00:35:20.556Z,0
2018-06-10T00:36:01.009Z,0
2018-06-10T00:36:41.401Z,0
2018-06-10T00:37:21.804Z,0
2018-06-10T00:38:02.196Z,0
2018-06-10T00:38:42.594Z,0
2018-06-10T00:39:22.971Z,0
2018-06-10T00:40:03.451Z,0
2018-06-10T00:40:43.840Z,0
2018-06-10T00:41:24.235Z,0
2018-06-10T00:42:04.698Z,0
2018-06-10T00:42:45.105Z,0
2018-06-10T00:43:25.515Z,0
2018-06-10T00:44:05.911Z,0
2018-06-10T00:44:46.269Z,0
2018-06-10T00:45:26.682Z,0
2018-06-10T00:46:07.153Z,0
2018-06-10T00:46:47.563Z,0
2018-06-10T00:47:27.937Z,0
2018-06-10T00:48:08.332Z,0
2018-06-10T00:48:48.750Z,0
2018-06-10T00:49:29.093Z,0
2018-06-10T00:50:09.519Z,0
2018-06-10T00:50:49.906Z,0
2018-06-10T00:51:30.327Z,0
2018-06-10T00:52:10.717Z,0
2018-06-10T00:52:51.101Z,0
2018-06-10T00:53:31.483Z,0
2018-06-10T00:54:11.918Z,0
2018-06-10T00:54:52.379Z,0
2018-06-10T00:55:32.751Z,0
2018-06-10T00:56:13.174Z,0
2018-06-10T00:56:53.542Z,0
2018-06-10T00:57:33.878Z,0
2018-06-10T00:58:14.338Z,0
2018-06-10T00:58:54.752Z,0
2018-06-10T00:59:35.116Z,0
2018-06-10T01:00:15.526Z,0
2018-06-10T01:00:55.931Z,0
2018-06-10T01:01:36.312Z,0
2018-06-10T01:02:16.804Z,0
2018-06-10T01:02:57.190Z,0
2018-06-10T01:03:37.551Z,0
2018-06-10T01:04:17.986Z,0
2018-06-10T01:04:58.398Z,0
2018-06-10T01:05:38.836Z,0
2018-06-10T01:06:19.213Z,0
2018-06-10T01:06:59.595Z,0
2018-06-10T01:07:40.006Z,0
2018-06-10T01:08:20.444Z,0
2018-06-10T01:09:00.816Z,0
2018-06-10T01:09:41.210Z,0
2018-06-10T01:10:21.625Z,0
2018-06-10T01:11:02.003Z,0
2018-06-10T01:11:42.412Z,0
2018-06-10T01:12:22.843Z,0
2018-06-10T01:13:03.243Z,0
2018-06-10T01:13:43.626Z,0
2018-06-10T01:14:24.008Z,0
2018-06-10T01:15:04.488Z,0
2018-06-10T01:15:44.875Z,0
2018-06-10T01:16:25.181Z,0
2018-06-10T01:17:05.666Z,0
2018-06-10T01:17:46.025Z,0
2018-06-10T01:18:26.458Z,0
2018-06-10T01:19:06.931Z,0
2018-06-10T01:19:47.401Z,0
2018-06-10T01:20:27.830Z,0
2018-06-10T01:21:08.259Z,0
2018-06-10T01:21:48.538Z,0
2018-06-10T01:22:28.943Z,0
2018-06-10T01:23:09.332Z,0
2018-06-10T01:23:49.769Z,0
2018-06-10T01:24:30.145Z,0
2018-06-10T01:25:10.600Z,0
2018-06-10T01:25:51.011Z,0
2018-06-10T01:26:31.345Z,0
2018-06-10T01:27:11.764Z,0
2018-06-10T01:27:52.193Z,0
2018-06-10T01:28:32.646Z,0
2018-06-10T01:29:13.013Z,0
2018-06-10T01:29:53.437Z,0
2018-06-10T01:30:33.827Z,0
2018-06-10T01:31:14.202Z,0
2018-06-10T01:31:54.605Z,0
2018-06-10T01:32:35.048Z,0
2018-06-10T01:33:15.434Z,0
2018-06-10T01:33:55.793Z,0
2018-06-10T01:34:36.248Z,0
2018-06-10T01:35:16.641Z,0
2018-06-10T01:35:57.079Z,0
2018-06-10T01:36:37.454Z,0
2018-06-10T01:37:17.864Z,0
2018-06-10T01:37:58.264Z,0
2018-06-10T01:38:38.681Z,0
2018-06-10T01:39:19.076Z,0
2018-06-10T01:39:59.462Z,0
2018-06-10T01:40:39.835Z,0
2018-06-10T01:41:20.281Z,0
2018-06-10T01:42:00.681Z,0
2018-06-10T01:42:41.077Z,0
2018-06-10T01:43:21.472Z,0
2018-06-10T01:44:01.891Z,0
2018-06-10T01:44:42.239Z,0
2018-06-10T01:45:22.663Z,0
2018-06-10T01:46:03.106Z,0
2018-06-10T01:46:43.506Z,0
2018-06-10T01:47:23.889Z,0
2018-06-10T01:48:04.296Z,0
2018-06-10T01:48:44.690Z,0
2018-06-10T01:49:25.110Z,0
2018-06-10T01:50:05.470Z,0
2018-06-10T01:50:45.909Z,0
2018-06-10T01:51:26.273Z,0
2018-06-10T01:52:06.686Z,0
2018-06-10T01:52:47.109Z,0
2018-06-10T01:53:27.523Z,0
2018-06-10T01:54:07.906Z,0
2018-06-10T01:54:48.272Z,0
2018-06-10T01:55:28.701Z,0
2018-06-10T01:56:09.155Z,0
2018-06-10T01:56:49.545Z,0
2018-06-10T01:57:29.937Z,0
2018-06-10T01:58:10.375Z,0
2018-06-10T01:58:50.754Z,0
2018-06-10T01:59:31.149Z,0
2018-06-10T02:00:11.526Z,0
2018-06-10T02:00:51.913Z,0
2018-06-10T02:01:32.363Z,0
2018-06-10T02:02:12.826Z,0
2018-06-10T02:02:53.244Z,0
2018-06-10T02:03:33.611Z,0
2018-06-10T02:04:14.043Z,0
2018-06-10T02:04:54.441Z,0
2018-06-10T02:05:34.801Z,0
2018-06-10T02:06:15.262Z,0
2018-06-10T02:06:55.667Z,0
2018-06-10T02:07:36.102Z,0
2018-06-10T02:08:16.469Z,0
2018-06-10T02:08:56.945Z,0
2018-06-10T02:09:37.335Z,0
2018-06-10T02:10:17.731Z,0
2018-06-10T02:10:58.135Z,0
2018-06-10T02:11:38.532Z,0
2018-06-10T02:12:18.900Z,0
2018-06-10T02:12:59.319Z,0
2018-06-10T02:13:39.717Z,0
2018-06-10T02:14:20.149Z,0
2018-06-10T02:15:00.509Z,0
2018-06-10T02:15:40.858Z,0
2018-06-10T02:16:21.290Z,0
2018-06-10T02:17:01.684Z,0
2018-06-10T02:17:42.111Z,0
2018-06-10T02:18:22.458Z,0
2018-06-10T02:19:02.941Z,0
2018-06-10T02:19:43.347Z,0
2018-06-10T02:20:23.757Z,0
2018-06-10T02:21:04.222Z,0
2018-06-10T02:21:44.614Z,0
2018-06-10T02:22:25.038Z,0
2018-06-10T02:23:05.365Z,0
2018-06-10T02:23:45.839Z,0
2018-06-10T02:24:26.235Z,0
2018-06-10T02:25:06.680Z,0
2018-06-10T02:25:47.072Z,0
2018-06-10T02:26:27.512Z,0
2018-06-10T02:27:07.854Z,0
2018-06-10T02:27:48.283Z,0
2018-06-10T02:28:28.745Z,0
2018-06-10T02:29:09.116Z,0
2018-06-10T02:29:49.492Z,0
2018-06-10T02:30:30.003Z,0
2018-06-10T02:31:10.394Z,0
2018-06-10T02:31:50.748Z,0
2018-06-10T02:32:31.136Z,0
2018-06-10T02:33:11.556Z,0
2018-06-10T02:33:51.956Z,0
2018-06-10T02:34:32.375Z,0
2018-06-10T02:35:12.758Z,0
2018-06-10T02:35:53.165Z,0
2018-06-10T02:36:33.615Z,0
2018-06-10T02:37:14.053Z,0
2018-06-10T02:37:54.409Z,0
2018-06-10T02:38:34.825Z,0
2018-06-10T02:39:15.291Z,0
2018-06-10T02:39:55.617Z,0
2018-06-10T02:40:36.079Z,0
2018-06-10T02:41:16.449Z,0
2018-06-10T02:41:56.874Z,0
2018-06-10T02:42:37.237Z,0
2018-06-10T02:43:17.634Z,0
2018-06-10T02:43:58.045Z,0
2018-06-10T02:44:38.417Z,0
2018-06-10T02:45:18.809Z,0
2018-06-10T02:45:59.255Z,0
2018-06-10T02:46:39.650Z,0
2018-06-10T02:47:20.061Z,0
2018-06-10T02:48:00.462Z,0
2018-06-10T02:48:40.889Z,0
2018-06-10T02:49:21.328Z,0
2018-06-10T02:50:01.676Z,0
2018-06-10T02:50:42.092Z,4
2018-06-10T02:51:22.485Z,4
2018-06-10T02:52:02.917Z,4
2018-06-10T02:52:43.333Z,4
2018-06-10T02:53:23.735Z,0
2018-06-10T02:54:04.100Z,0
2018-06-10T02:54:44.506Z,4
2018-06-10T02:55:24.936Z,4
2018-06-10T02:56:05.369Z,4
2018-06-10T02:56:45.763Z,4
2018-06-10T02:57:26.097Z,4
2018-06-10T02:58:06.528Z,4
2018-06-10T02:58:46.945Z,4
2018-06-10T02:59:27.322Z,8
2018-06-10T03:00:07.680Z,4
2018-06-10T03:00:48.124Z,8
2018-06-10T03:01:28.487Z,8
2018-06-10T03:02:08.873Z,8
2018-06-10T03:02:49.307Z,8
2018-06-10T03:03:29.698Z,8
2018-06-10T03:04:10.093Z,12
2018-06-10T03:04:50.506Z,8
2018-06-10T03:05:30.936Z,12
2018-06-10T03:06:11.394Z,12
2018-06-10T03:06:51.734Z,16
2018-06-10T03:07:32.180Z,12
2018-06-10T03:08:12.565Z,16
2018-06-10T03:08:52.977Z,16
2018-06-10T03:09:33.381Z,16
2018-06-10T03:10:13.777Z,16
2018-06-10T03:10:54.175Z,16
2018-06-10T03:11:34.561Z,16
2018-06-10T03:12:15.002Z,20
2018-06-10T03:12:55.441Z,20
2018-06-10T03:13:35.829Z,20
2018-06-10T03:14:16.257Z,20
2018-06-10T03:14:56.625Z,24
2018-06-10T03:15:37.103Z,28
2018-06-10T03:16:17.518Z,24
2018-06-10T03:16:57.893Z,28
2018-06-10T03:17:38.281Z,28
2018-06-10T03:18:18.730Z,32
2018-06-10T03:18:59.069Z,32
2018-06-10T03:19:39.532Z,32
2018-06-10T03:20:19.904Z,36
2018-06-10T03:21:00.307Z,36
2018-06-10T03:21:40.681Z,36
2018-06-10T03:22:21.121Z,44
2018-06-10T03:23:01.519Z,44
2018-06-10T03:23:41.988Z,48
2018-06-10T03:24:22.364Z,52
2018-06-10T03:25:02.748Z,56
2018-06-10T03:25:43.160Z,56
2018-06-10T03:26:23.515Z,64
2018-06-10T03:27:03.893Z,64
2018-06-10T03:27:44.337Z,68
2018-06-10T03:28:24.735Z,72
2018-06-10T03:29:05.143Z,76
2018-06-10T03:29:45.545Z,80
2018-06-10T03:30:25.956Z,84
2018-06-10T03:31:06.344Z,88
2018-06-10T03:31:46.763Z,92
2018-06-10T03:32:27.139Z,96
2018-06-10T03:33:07.550Z,100
2018-06-10T03:33:47.982Z,108
2018-06-10T03:34:28.387Z,112
2018-06-10T03:35:08.809Z,116
2018-06-10T03:35:49.180Z,120
2018-06-10T03:36:29.651Z,120
2018-06-10T03:37:10.019Z,124
2018-06-10T03:37:50.481Z,132
2018-06-10T03:38:30.835Z,136
2018-06-10T03:39:11.236Z,136
2018-06-10T03:39:51.626Z,140
2018-06-10T03:40:32.048Z,148
2018-06-10T03:41:12.443Z,152
2018-06-10T03:41:52.887Z,160
2018-06-10T03:42:33.278Z,168
2018-06-10T03:43:13.707Z,172
2018-06-10T03:43:54.092Z,180
2018-06-10T03:44:34.597Z,184
2018-06-10T03:45:14.992Z,192
2018-06-10T03:45:55.386Z,196
2018-06-10T03:46:35.810Z,200
2018-06-10T03:47:16.221Z,208
2018-06-10T03:47:56.634Z,216
2018-06-10T03:48:37.009Z,220
2018-06-10T03:49:17.479Z,220
2018-06-10T03:49:57.910Z,220
2018-06-10T03:50:38.314Z,216
2018-06-10T03:51:18.743Z,220
2018-06-10T03:51:59.150Z,216
2018-06-10T03:52:39.491Z,216
2018-06-10T03:53:19.980Z,216
2018-06-10T03:54:00.380Z,220
2018-06-10T03:54:40.763Z,224
2018-06-10T03:55:21.168Z,228
2018-06-10T03:56:01.590Z,232
2018-06-10T03:56:41.930Z,236
2018-06-10T03:57:22.407Z,248
2018-06-10T03:58:02.766Z,260
2018-06-10T03:58:43.258Z,264
2018-06-10T03:59:23.572Z,272
2018-06-10T04:00:03.972Z,280
2018-06-10T04:00:44.458Z,292
2018-06-10T04:01:24.913Z,304
2018-06-10T04:02:05.260Z,324
2018-06-10T04:42:36.819Z,628
2018-06-10T04:43:17.176Z,640
2018-06-10T04:43:57.581Z,644
2018-06-10T04:44:37.957Z,652
2018-06-10T04:45:18.348Z,680
2018-06-10T04:45:58.727Z,720
2018-06-10T04:46:39.197Z,760
2018-06-10T04:47:19.524Z,800
2018-06-10T04:47:59.945Z,828
2018-06-10T04:48:40.454Z,856
2018-06-10T04:49:20.812Z,888
2018-06-10T04:50:01.195Z,928
2018-06-10T04:50:41.585Z,976
2018-06-10T04:51:22.001Z,1028
2018-06-10T04:52:02.437Z,1080
2018-06-10T04:52:42.793Z,1140
2018-06-10T04:53:23.228Z,1224
2018-06-10T04:54:03.604Z,1340
2018-06-10T04:54:44.061Z,1476
2018-06-10T04:55:24.444Z,1620
2018-06-10T04:56:04.849Z,1760
2018-06-10T04:56:45.221Z,1900
2018-06-10T04:57:25.628Z,2044
2018-06-10T04:58:06.049Z,2184
2018-06-10T04:58:46.463Z,2312
2018-06-10T04:59:26.884Z,2448
2018-06-10T05:00:07.260Z,2640
2018-06-10T05:00:47.609Z,2808
2018-06-10T05:01:28.053Z,3176
2018-06-10T05:02:08.498Z,4100
2018-06-10T05:02:48.844Z,4616
2018-06-10T05:03:29.281Z,5328
2018-06-10T05:04:09.665Z,6052
2018-06-10T05:04:50.115Z,6432
2018-06-10T05:05:30.473Z,7320
2018-06-10T05:06:10.969Z,8376
2018-06-10T05:06:51.365Z,8676
2018-06-10T05:07:31.770Z,8624
2018-06-10T05:08:12.207Z,9156
2018-06-10T05:08:52.603Z,9844
2018-06-10T05:09:33.067Z,9948
2018-06-10T05:10:13.439Z,9516
2018-06-10T05:10:53.832Z,9584
2018-06-10T05:11:34.257Z,9392
2018-06-10T05:12:14.687Z,9520
2018-06-10T05:12:55.065Z,10052
2018-06-10T05:13:35.429Z,10672
2018-06-10T05:14:15.898Z,10436
2018-06-10T05:14:56.245Z,9776
2018-06-10T05:15:36.645Z,10772
2018-06-10T05:16:17.083Z,11488
2018-06-10T05:16:57.498Z,11744
2018-06-10T05:17:37.918Z,11808
2018-06-10T05:18:18.380Z,11968
2018-06-10T05:18:58.708Z,12192
2018-06-10T05:19:39.201Z,11872
2018-06-10T05:20:19.558Z,10924
2018-06-10T05:20:59.984Z,10656
2018-06-10T05:21:40.343Z,10200
2018-06-10T05:22:20.742Z,9472
2018-06-10T05:23:01.097Z,8644
2018-06-10T05:23:41.563Z,7920
2018-06-10T05:24:21.951Z,8404
2018-06-10T05:25:02.319Z,8120
2018-06-10T05:25:42.801Z,8264
2018-06-10T05:26:23.215Z,8684
2018-06-10T05:27:03.602Z,8724
2018-06-10T05:27:44.053Z,9488
2018-06-10T05:28:24.418Z,10436
2018-06-10T05:29:04.818Z,10488
2018-06-10T05:29:45.229Z,10756
2018-06-10T05:30:25.568Z,11236
2018-06-10T05:31:06.001Z,11552
2018-06-10T05:31:46.391Z,12064
2018-06-10T05:32:26.853Z,11840
2018-06-10T05:33:07.305Z,12192
2018-06-10T05:33:47.663Z,12736
2018-06-10T05:34:28.075Z,13216
2018-06-10T05:35:08.465Z,12992
2018-06-10T05:35:48.853Z,13280
2018-06-10T05:36:29.272Z,13728
2018-06-10T05:37:09.742Z,13568
2018-06-10T05:37:50.123Z,13312
2018-06-10T05:38:30.602Z,13920
2018-06-10T05:39:11.004Z,14528
2018-06-10T05:39:51.328Z,14496
2018-06-10T05:40:31.810Z,13920
2018-06-10T05:41:12.265Z,13952
2018-06-10T05:41:52.673Z,14176
2018-06-10T05:42:33.095Z,14496
2018-06-10T05:43:13.533Z,14304
2018-06-10T05:43:53.862Z,13280
2018-06-10T05:44:34.256Z,13248
2018-06-10T05:45:14.693Z,12136
2018-06-10T05:45:55.097Z,13024
2018-06-10T05:46:35.496Z,13152
2018-06-10T05:47:15.912Z,12352
2018-06-10T05:47:56.335Z,12288
2018-06-10T05:48:36.743Z,12704
2018-06-10T05:49:17.096Z,12480
2018-06-10T05:49:57.501Z,12128
2018-06-10T05:50:37.969Z,11740
2018-06-10T05:51:18.385Z,11756
2018-06-10T05:51:58.782Z,11676
2018-06-10T05:52:39.179Z,12288
2018-06-10T05:53:19.615Z,12480
2018-06-10T05:54:00.010Z,13504
2018-06-10T05:54:40.367Z,14240
2018-06-10T05:55:20.858Z,15168
2018-06-10T05:56:01.258Z,14592
2018-06-10T05:56:41.647Z,14720
2018-06-10T05:57:22.113Z,14432
2018-06-10T05:58:02.543Z,14464
2018-06-10T05:58:43.005Z,14912
2018-06-10T05:59:23.388Z,15744
2018-06-10T06:00:03.788Z,16288
2018-06-10T06:00:44.151Z,16192
2018-06-10T06:01:24.629Z,15904
2018-06-10T06:02:05.008Z,15584
2018-06-10T06:02:45.486Z,15456
2018-06-10T06:03:25.898Z,15136
2018-06-10T06:04:06.317Z,14688
2018-06-10T06:04:46.690Z,14304
2018-06-10T06:05:27.052Z,14912
2018-06-10T06:06:07.507Z,15424
2018-06-10T06:06:47.868Z,15776
2018-06-10T06:07:28.278Z,16128
2018-06-10T06:08:08.756Z,16608
2018-06-10T06:08:49.124Z,16608
2018-06-10T06:09:29.503Z,17312
2018-06-10T06:10:09.982Z,17440
2018-06-10T06:10:50.348Z,18144
2018-06-10T06:11:30.789Z,19136
2018-06-10T06:12:11.210Z,19168
2018-06-10T06:12:51.555Z,19008
2018-06-10T06:13:31.979Z,18368
2018-06-10T06:14:12.358Z,17728
2018-06-10T06:14:52.748Z,18080
2018-06-10T06:15:33.196Z,19040
2018-06-10T06:16:13.606Z,18496
2018-06-10T06:16:53.973Z,17952
2018-06-10T06:17:34.370Z,16896
2018-06-10T06:18:14.734Z,15840
2018-06-10T06:18:55.194Z,15520
2018-06-10T06:19:35.637Z,13984
2018-06-10T06:20:16.015Z,13312
2018-06-10T06:20:56.435Z,12496
2018-06-10T06:21:36.806Z,9996
2018-06-10T06:22:17.216Z,9512
2018-06-10T06:22:57.694Z,10624
2018-06-10T06:23:38.049Z,11816
2018-06-10T06:24:18.514Z,10132
2018-06-10T06:24:58.859Z,8596
2018-06-10T06:25:39.324Z,8288
2018-06-10T06:26:19.718Z,6392
2018-06-10T06:27:00.135Z,5232
2018-06-10T06:27:40.554Z,4816
2018-06-10T06:28:20.962Z,4768
2018-06-10T06:29:01.363Z,5028
2018-06-10T06:29:41.798Z,5200
2018-06-10T06:30:22.237Z,5480
2018-06-10T06:31:02.622Z,6088
2018-06-10T06:31:43.016Z,5848
2018-06-10T06:32:23.392Z,4832
2018-06-10T06:33:03.870Z,3612
2018-06-10T06:33:44.244Z,2552
2018-06-10T06:34:24.665Z,2100
2018-06-10T06:35:05.046Z,1980
2018-06-10T06:35:45.432Z,1888
2018-06-10T06:36:25.847Z,1744
2018-06-10T06:37:06.288Z,1580
2018-06-10T06:37:46.667Z,1468
2018-06-10T06:38:27.096Z,1376
2018-06-10T06:39:07.488Z,1304
2018-06-10T06:39:47.912Z,1248
2018-06-10T06:40:28.300Z,1212
2018-06-10T06:41:08.665Z,1196
2018-06-10T06:41:49.164Z,1192
2018-06-10T06:42:29.501Z,1232
2018-06-10T06:43:09.980Z,1264
2018-06-10T06:43:50.336Z,1300
2018-06-10T06:44:30.812Z,1276
2018-06-10T06:45:11.217Z,1220
2018-06-10T06:45:51.546Z,1228
2018-06-10T06:46:31.946Z,1244
2018-06-10T06:47:12.446Z,1180
2018-06-10T06:47:52.900Z,1120
2018-06-10T06:48:33.194Z,1088
2018-06-10T06:49:13.636Z,1032
2018-06-10T06:49:54.041Z,988
2018-06-10T06:50:34.429Z,960
2018-06-10T06:51:14.901Z,988
2018-06-10T06:51:55.314Z,1020
2018-06-10T06:52:35.710Z,1044
2018-06-10T06:53:16.108Z,1076
2018-06-10T06:53:56.468Z,1116
2018-06-10T06:54:36.939Z,1180
2018-06-10T06:55:17.336Z,1188
2018-06-10T06:55:57.817Z,1084
2018-06-10T06:56:38.206Z,924
2018-06-10T06:57:18.687Z,824
2018-06-10T06:57:59.075Z,824
2018-06-10T06:58:39.496Z,904
2018-06-10T06:59:19.853Z,952
2018-06-10T07:00:00.235Z,936
2018-06-10T07:00:40.659Z,1080
2018-06-10T07:01:21.065Z,1172
2018-06-10T07:02:01.487Z,1252
2018-06-10T07:02:41.927Z,1376
2018-06-10T07:03:22.358Z,1488
2018-06-10T07:04:02.741Z,1568
2018-06-10T07:04:43.176Z,2408
2018-06-10T07:05:23.510Z,4364
2018-06-10T07:06:03.920Z,6404
2018-06-10T07:06:44.375Z,5200
2018-06-10T07:07:24.796Z,3452
2018-06-10T07:08:05.185Z,2724
2018-06-10T07:08:45.569Z,2468
2018-06-10T07:09:25.970Z,2552
2018-06-10T07:10:06.440Z,2620
2018-06-10T07:10:46.839Z,2712
2018-06-10T07:11:27.203Z,2876
2018-06-10T07:12:07.638Z,2928
2018-06-10T07:12:48.066Z,2964
2018-06-10T07:13:28.472Z,3088
2018-06-10T07:14:08.859Z,3004
2018-06-10T07:14:49.204Z,2948
2018-06-10T07:15:29.696Z,3088
2018-06-10T07:16:10.049Z,3208
2018-06-10T07:16:50.455Z,3404
2018-06-10T07:17:30.897Z,3428
2018-06-10T07:18:11.289Z,3176
2018-06-10T07:18:51.689Z,2716
2018-06-10T07:19:32.135Z,2320
2018-06-10T07:20:12.497Z,2064
2018-06-10T07:20:52.945Z,1872
2018-06-10T07:21:33.345Z,1700
2018-06-10T07:22:13.765Z,1644
2018-06-10T07:22:54.151Z,1764
2018-06-10T07:23:34.590Z,2152
2018-06-10T07:24:14.941Z,2708
2018-06-10T07:24:55.353Z,3204
2018-06-10T07:25:35.797Z,3664
2018-06-10T07:26:16.156Z,3976
2018-06-10T07:26:56.575Z,4180
2018-06-10T07:27:36.936Z,4272
2018-06-10T07:28:17.335Z,4280
2018-06-10T07:28:57.824Z,4124
2018-06-10T07:29:38.172Z,4012
2018-06-10T07:30:18.660Z,4308
2018-06-10T07:30:59.046Z,4760
2018-06-10T07:31:39.448Z,5316
2018-06-10T07:32:19.852Z,6012
2018-06-10T07:33:00.218Z,5824
2018-06-10T07:33:40.753Z,5212
2018-06-10T07:34:21.071Z,4360
2018-06-10T07:35:01.529Z,3472
2018-06-10T07:35:42.041Z,3092
2018-06-10T07:36:22.395Z,3068
2018-06-10T07:37:02.886Z,3484
2018-06-10T07:37:43.229Z,4100
2018-06-10T07:38:23.691Z,4532
2018-06-10T07:39:04.047Z,4424
2018-06-10T07:39:44.487Z,4552
2018-06-10T07:40:24.916Z,4416
2018-06-10T07:41:05.238Z,4032
2018-06-10T07:41:45.663Z,3828
2018-06-10T07:42:26.073Z,3588
2018-06-10T07:43:06.469Z,3268
2018-06-10T07:43:46.948Z,3064
2018-06-10T07:44:27.348Z,2984
2018-06-10T07:45:07.735Z,2972
2018-06-10T07:45:48.148Z,2980
2018-06-10T07:46:28.618Z,2820
2018-06-10T07:47:09.051Z,2616
2018-06-10T07:47:49.480Z,2340
2018-06-10T07:48:29.902Z,2104
2018-06-10T07:49:10.312Z,1912
2018-06-10T07:49:50.693Z,1808
2018-06-10T07:50:31.096Z,1752
2018-06-10T07:51:11.506Z,1688
2018-06-10T07:51:51.939Z,1612
2018-06-10T07:52:32.331Z,1532
2018-06-10T07:53:12.757Z,1464
2018-06-10T07:53:53.130Z,1380
2018-06-10T07:54:33.649Z,1276
2018-06-10T07:55:14.031Z,1144
2018-06-10T07:55:54.447Z,1016
2018-06-10T07:56:34.843Z,904
2018-06-10T07:57:15.237Z,820
2018-06-10T07:57:55.685Z,768
2018-06-10T07:58:36.095Z,740
2018-06-10T07:59:16.475Z,720
2018-06-10T07:59:56.894Z,716
2018-06-10T08:00:37.258Z,708
2018-06-10T08:01:17.691Z,716
2018-06-10T08:01:58.159Z,740
2018-06-10T08:02:38.571Z,772
2018-06-10T08:03:18.967Z,800
2018-06-10T08:03:59.421Z,812
2018-06-10T08:04:39.768Z,804
2018-06-10T08:05:20.256Z,780
2018-06-10T08:06:00.621Z,768
2018-06-10T08:06:41.042Z,748
2018-06-10T08:07:21.433Z,712
2018-06-10T08:08:01.908Z,688
2018-06-10T08:08:42.364Z,660
2018-06-10T08:09:22.801Z,632
2018-06-10T08:10:03.341Z,644
2018-06-10T08:10:43.705Z,672
2018-06-10T08:11:24.137Z,724
2018-06-10T08:12:04.566Z,756
2018-06-10T08:12:45.010Z,760
2018-06-10T08:13:25.359Z,764
2018-06-10T08:14:05.812Z,740
2018-06-10T08:14:46.194Z,712
2018-06-10T08:15:26.708Z,692
2018-06-10T08:16:07.095Z,676
2018-06-10T08:16:47.541Z,664
2018-06-10T08:17:28.024Z,648
2018-06-10T08:18:08.410Z,628
2018-06-10T08:18:48.828Z,600
2018-06-10T08:19:29.209Z,588
2018-06-10T08:20:09.627Z,576
2018-06-10T08:20:50.018Z,576
2018-06-10T08:21:30.346Z,580
2018-06-10T08:22:10.813Z,592
2018-06-10T08:22:51.143Z,600
2018-06-10T08:23:32.342Z,608
2018-06-10T08:24:12.661Z,612
2018-06-10T08:24:53.114Z,628
2018-06-10T08:25:33.525Z,668
2018-06-10T08:26:13.907Z,704
2018-06-10T08:26:54.359Z,736
2018-06-10T08:27:34.737Z,760
2018-06-10T08:28:15.150Z,752
2018-06-10T08:28:55.523Z,732
2018-06-10T08:29:35.967Z,744
2018-06-10T08:30:16.385Z,744
2018-06-10T08:30:56.783Z,764
2018-06-10T08:31:37.179Z,804
2018-06-10T08:32:17.570Z,860
2018-06-10T08:32:57.977Z,912
2018-06-10T08:33:38.445Z,972
2018-06-10T08:34:18.798Z,1040
2018-06-10T08:34:59.190Z,1120
2018-06-10T08:35:39.627Z,1188
2018-06-10T08:36:20.018Z,1204
2018-06-10T08:37:00.485Z,1224
2018-06-10T08:37:40.812Z,1240
2018-06-10T08:38:21.223Z,1240
2018-06-10T08:39:02.009Z,1224
2018-06-10T08:39:42.360Z,1188
2018-06-10T08:40:22.801Z,1152
2018-06-10T08:41:03.223Z,1132
2018-06-10T08:41:43.576Z,1088
2018-06-10T08:42:24.057Z,1032
2018-06-10T08:43:04.436Z,988
2018-06-10T08:43:44.856Z,956
2018-06-10T08:44:25.257Z,940
2018-06-10T08:45:05.688Z,928
2018-06-10T08:45:46.077Z,928
2018-06-10T08:46:26.501Z,940
2018-06-10T08:47:06.849Z,956
2018-06-10T08:47:47.385Z,968
2018-06-10T08:48:27.735Z,976
2018-06-10T08:49:08.181Z,976
2018-06-10T08:49:48.565Z,980
2018-06-10T08:50:29.020Z,984
2018-06-10T08:51:09.416Z,996
2018-06-10T08:51:49.774Z,1008
2018-06-10T08:52:30.194Z,1008
2018-06-10T08:53:10.665Z,996
2018-06-10T08:53:51.097Z,1000
2018-06-10T08:54:31.468Z,1060
2018-06-10T08:55:11.871Z,1132
2018-06-10T08:55:52.456Z,1156
2018-06-10T08:56:32.846Z,1144
2018-06-10T08:57:13.237Z,1160
2018-06-10T08:57:53.656Z,1196
2018-06-10T08:58:34.033Z,1204
2018-06-10T08:59:14.451Z,1264
2018-06-10T08:59:54.838Z,1332
2018-06-10T09:00:35.303Z,1436
2018-06-10T09:01:15.732Z,1520
2018-06-10T09:01:56.132Z,1568
2018-06-10T09:02:36.473Z,1592
2018-06-10T09:03:16.962Z,1608
2018-06-10T09:03:57.368Z,1588
2018-06-10T09:04:37.752Z,1532
2018-06-10T09:05:18.122Z,1476
2018-06-10T09:05:58.555Z,1432
2018-06-10T09:06:39.001Z,1392
2018-06-10T09:07:19.383Z,1348
2018-06-10T09:07:59.769Z,1320
2018-06-10T09:08:40.211Z,1320
2018-06-10T09:09:20.663Z,1356
2018-06-10T09:10:01.021Z,1404
2018-06-10T09:10:41.418Z,1432
2018-06-10T09:11:21.841Z,1432
2018-06-10T09:12:02.273Z,1376
2018-06-10T09:12:42.743Z,1256
2018-06-10T09:13:23.131Z,1152
2018-06-10T09:14:03.466Z,1060
2018-06-10T09:14:43.915Z,1036
2018-06-10T09:15:24.299Z,1032
2018-06-10T09:16:04.709Z,1008
2018-06-10T09:16:45.129Z,984
2018-06-10T09:17:25.590Z,984
2018-06-10T09:19:54.010Z,932
2018-06-10T09:22:13.874Z,932
2018-06-10T09:22:54.055Z,980
2018-06-10T09:23:34.532Z,1040
2018-06-10T09:24:14.852Z,1084
2018-06-10T09:24:55.303Z,1108
2018-06-10T09:25:35.749Z,1108
2018-06-10T09:26:16.124Z,1092
2018-06-10T09:26:56.572Z,1064
2018-06-10T09:27:36.935Z,1052
2018-06-10T09:28:17.365Z,1052
2018-06-10T09:28:57.738Z,1064
2018-06-10T09:29:38.216Z,1088
2018-06-10T09:30:18.550Z,1128
2018-06-10T09:30:58.951Z,1192
2018-06-10T09:31:39.296Z,1304
2018-06-10T09:32:19.711Z,1396
2018-06-10T09:33:00.188Z,1460
2018-06-10T09:33:40.516Z,1496
2018-06-10T09:34:20.970Z,1524
2018-06-10T09:35:01.374Z,1536
2018-06-10T09:35:41.751Z,1508
2018-06-10T09:36:22.176Z,1468
2018-06-10T09:37:02.555Z,1428
2018-06-10T09:37:43.003Z,1388
2018-06-10T09:38:23.403Z,1352
2018-06-10T09:39:03.777Z,1356
2018-06-10T09:39:44.276Z,1372
2018-06-10T09:40:24.793Z,1404
2018-06-10T09:41:05.257Z,1456
2018-06-10T09:41:45.675Z,1496
2018-06-10T09:42:26.047Z,1524
2018-06-10T09:43:06.456Z,1548
2018-06-10T09:43:46.963Z,1584
2018-06-10T09:44:27.291Z,1612
2018-06-10T09:45:07.722Z,1620
2018-06-10T09:45:48.227Z,1580
2018-06-10T09:46:28.618Z,1512
2018-06-10T09:47:09.012Z,1452
2018-06-10T09:47:50.206Z,1384
2018-06-10T09:48:30.605Z,1308
2018-06-10T09:49:10.989Z,1244
2018-06-10T09:49:51.456Z,1216
2018-06-10T09:50:31.872Z,1184
2018-06-10T09:51:12.277Z,1156
2018-06-10T09:51:52.699Z,1132
2018-06-10T09:52:33.120Z,1120
2018-06-10T09:53:13.571Z,1096
2018-06-10T09:53:53.956Z,1076
2018-06-10T09:54:34.360Z,1076
2018-06-10T09:55:14.805Z,1100
2018-06-10T09:55:55.190Z,1140
2018-06-10T09:56:35.574Z,1192
2018-06-10T09:57:16.038Z,1232
2018-06-10T09:57:56.407Z,1288
2018-06-10T09:58:36.889Z,1340
2018-06-10T09:59:17.269Z,1404
2018-06-10T09:59:57.628Z,1472
2018-06-10T10:00:38.120Z,1528
2018-06-10T10:01:18.571Z,1584
2018-06-10T10:01:58.886Z,1652
2018-06-10T10:02:39.246Z,1692
2018-06-10T10:03:19.777Z,1724
2018-06-10T10:04:00.170Z,1780
2018-06-10T10:43:09.355Z,2160
2018-06-10T10:43:49.722Z,2112